sensor_id;sensor_type;location;lat;lon;timestamp;P1;durP1;ratioP1;P2;durP2;ratioP2
41653;SDS011;30790;52.030;7.110;2022-08-18T00:01:14;59.67;;;44.45;;
41653;SDS011;30790;52.030;7.110;2022-08-18T00:03:40;59.75;;;42.72;;
41653;SDS011;30790;52.030;7.110;2022-08-18T00:06:06;62.38;;;45.17;;
41653;SDS011;30790;52.030;7.110;2022-08-18T00:08:32;61.28;;;44.13;;
41653;SDS011;30790;52.030;7.110;2022-08-18T00:10:57;71.63;;;48.72;;
41653;SDS011;30790;52.030;7.110;2022-08-18T00:13:23;64.22;;;45.65;;
41653;SDS011;30790;52.030;7.110;2022-08-18T00:15:48;69.13;;;50.42;;
41653;SDS011;30790;52.030;7.110;2022-08-18T00:18:14;71.63;;;48.67;;
41653;SDS011;30790;52.030;7.110;2022-08-18T00:20:40;65.63;;;46.97;;
41653;SDS011;30790;52.030;7.110;2022-08-18T00:23:05;72.22;;;49.15;;
41653;SDS011;30790;52.030;7.110;2022-08-18T00:25:31;68.03;;;49.03;;
41653;SDS011;30790;52.030;7.110;2022-08-18T00:27:56;67.30;;;48.03;;
41653;SDS011;30790;52.030;7.110;2022-08-18T00:30:21;72.75;;;49.47;;
41653;SDS011;30790;52.030;7.110;2022-08-18T00:32:48;71.00;;;49.78;;
41653;SDS011;30790;52.030;7.110;2022-08-18T00:35:20;66.88;;;47.33;;
41653;SDS011;30790;52.030;7.110;2022-08-18T00:37:46;71.68;;;49.28;;
41653;SDS011;30790;52.030;7.110;2022-08-18T00:40:15;70.72;;;49.83;;
41653;SDS011;30790;52.030;7.110;2022-08-18T00:42:46;70.18;;;50.00;;
41653;SDS011;30790;52.030;7.110;2022-08-18T00:45:15;74.13;;;51.20;;
41653;SDS011;30790;52.030;7.110;2022-08-18T00:47:44;70.40;;;49.95;;
41653;SDS011;30790;52.030;7.110;2022-08-18T00:50:11;73.78;;;51.20;;
41653;SDS011;30790;52.030;7.110;2022-08-18T00:52:39;73.20;;;51.35;;
41653;SDS011;30790;52.030;7.110;2022-08-18T00:55:06;68.35;;;48.40;;
41653;SDS011;30790;52.030;7.110;2022-08-18T00:57:31;72.90;;;51.42;;
41653;SDS011;30790;52.030;7.110;2022-08-18T01:00:03;65.70;;;47.28;;
41653;SDS011;30790;52.030;7.110;2022-08-18T01:02:41;69.32;;;47.20;;
41653;SDS011;30790;52.030;7.110;2022-08-18T01:05:30;73.00;;;49.78;;
41653;SDS011;30790;52.030;7.110;2022-08-18T01:08:02;67.45;;;48.15;;
41653;SDS011;30790;52.030;7.110;2022-08-18T01:10:27;70.15;;;48.17;;
41653;SDS011;30790;52.030;7.110;2022-08-18T01:12:57;72.35;;;48.03;;
41653;SDS011;30790;52.030;7.110;2022-08-18T01:15:23;67.57;;;48.30;;
41653;SDS011;30790;52.030;7.110;2022-08-18T01:17:50;70.63;;;47.00;;
41653;SDS011;30790;52.030;7.110;2022-08-18T01:20:35;69.78;;;48.17;;
41653;SDS011;30790;52.030;7.110;2022-08-18T01:23:25;67.28;;;48.00;;
41653;SDS011;30790;52.030;7.110;2022-08-18T01:25:52;62.92;;;46.00;;
41653;SDS011;30790;52.030;7.110;2022-08-18T01:28:31;65.97;;;46.05;;
41653;SDS011;30790;52.030;7.110;2022-08-18T01:30:59;63.47;;;45.67;;
41653;SDS011;30790;52.030;7.110;2022-08-18T01:33:26;66.88;;;47.20;;
41653;SDS011;30790;52.030;7.110;2022-08-18T01:35:56;65.72;;;46.42;;
41653;SDS011;30790;52.030;7.110;2022-08-18T01:38:23;66.75;;;46.17;;
41653;SDS011;30790;52.030;7.110;2022-08-18T01:40:50;64.88;;;45.97;;
41653;SDS011;30790;52.030;7.110;2022-08-18T01:43:16;65.03;;;45.78;;
41653;SDS011;30790;52.030;7.110;2022-08-18T01:45:41;64.65;;;47.35;;
41653;SDS011;30790;52.030;7.110;2022-08-18T01:48:07;67.43;;;47.22;;
41653;SDS011;30790;52.030;7.110;2022-08-18T01:50:33;63.55;;;45.97;;
41653;SDS011;30790;52.030;7.110;2022-08-18T01:53:01;65.70;;;46.03;;
41653;SDS011;30790;52.030;7.110;2022-08-18T01:55:29;63.30;;;46.10;;
41653;SDS011;30790;52.030;7.110;2022-08-18T01:57:55;67.43;;;46.03;;
41653;SDS011;30790;52.030;7.110;2022-08-18T02:00:21;63.20;;;44.80;;
41653;SDS011;30790;52.030;7.110;2022-08-18T02:02:47;61.72;;;45.38;;
41653;SDS011;30790;52.030;7.110;2022-08-18T02:05:15;62.45;;;45.30;;
41653;SDS011;30790;52.030;7.110;2022-08-18T02:07:43;61.28;;;44.95;;
41653;SDS011;30790;52.030;7.110;2022-08-18T02:10:08;62.85;;;44.20;;
41653;SDS011;30790;52.030;7.110;2022-08-18T02:12:35;66.57;;;47.58;;
41653;SDS011;30790;52.030;7.110;2022-08-18T02:15:02;66.13;;;47.03;;
41653;SDS011;30790;52.030;7.110;2022-08-18T02:17:28;65.50;;;45.67;;
41653;SDS011;30790;52.030;7.110;2022-08-18T02:20:00;61.63;;;44.47;;
41653;SDS011;30790;52.030;7.110;2022-08-18T02:22:25;69.53;;;49.92;;
41653;SDS011;30790;52.030;7.110;2022-08-18T02:24:50;61.60;;;45.83;;
41653;SDS011;30790;52.030;7.110;2022-08-18T02:27:16;64.30;;;46.08;;
41653;SDS011;30790;52.030;7.110;2022-08-18T02:29:41;58.88;;;44.72;;
41653;SDS011;30790;52.030;7.110;2022-08-18T02:32:07;61.15;;;44.00;;
41653;SDS011;30790;52.030;7.110;2022-08-18T02:34:33;65.70;;;47.05;;
41653;SDS011;30790;52.030;7.110;2022-08-18T02:36:59;64.70;;;45.35;;
41653;SDS011;30790;52.030;7.110;2022-08-18T02:39:24;61.88;;;44.97;;
41653;SDS011;30790;52.030;7.110;2022-08-18T02:41:50;63.80;;;44.97;;
41653;SDS011;30790;52.030;7.110;2022-08-18T02:44:15;63.50;;;45.08;;
41653;SDS011;30790;52.030;7.110;2022-08-18T02:46:41;60.72;;;43.53;;
41653;SDS011;30790;52.030;7.110;2022-08-18T02:49:07;65.32;;;44.47;;
41653;SDS011;30790;52.030;7.110;2022-08-18T02:51:33;63.65;;;45.85;;
41653;SDS011;30790;52.030;7.110;2022-08-18T02:53:58;64.68;;;45.35;;
41653;SDS011;30790;52.030;7.110;2022-08-18T02:56:24;66.18;;;47.17;;
41653;SDS011;30790;52.030;7.110;2022-08-18T02:58:54;65.47;;;46.05;;
41653;SDS011;30790;52.030;7.110;2022-08-18T03:01:29;63.20;;;45.35;;
41653;SDS011;30790;52.030;7.110;2022-08-18T03:03:58;68.50;;;45.65;;
41653;SDS011;30790;52.030;7.110;2022-08-18T03:06:25;63.13;;;44.85;;
41653;SDS011;30790;52.030;7.110;2022-08-18T03:08:52;67.10;;;48.75;;
41653;SDS011;30790;52.030;7.110;2022-08-18T03:11:20;69.45;;;46.90;;
41653;SDS011;30790;52.030;7.110;2022-08-18T03:13:48;68.97;;;48.58;;
41653;SDS011;30790;52.030;7.110;2022-08-18T03:16:14;65.60;;;46.30;;
41653;SDS011;30790;52.030;7.110;2022-08-18T03:18:41;74.32;;;50.67;;
41653;SDS011;30790;52.030;7.110;2022-08-18T03:21:07;74.93;;;50.20;;
41653;SDS011;30790;52.030;7.110;2022-08-18T03:23:34;75.57;;;50.35;;
41653;SDS011;30790;52.030;7.110;2022-08-18T03:26:00;66.95;;;46.28;;
41653;SDS011;30790;52.030;7.110;2022-08-18T03:28:26;77.10;;;51.42;;
41653;SDS011;30790;52.030;7.110;2022-08-18T03:30:52;79.80;;;52.50;;
41653;SDS011;30790;52.030;7.110;2022-08-18T03:33:17;73.85;;;52.45;;
41653;SDS011;30790;52.030;7.110;2022-08-18T03:35:43;75.65;;;50.88;;
41653;SDS011;30790;52.030;7.110;2022-08-18T03:38:08;74.63;;;50.88;;
41653;SDS011;30790;52.030;7.110;2022-08-18T03:40:33;72.90;;;50.88;;
41653;SDS011;30790;52.030;7.110;2022-08-18T03:43:01;72.38;;;48.30;;
41653;SDS011;30790;52.030;7.110;2022-08-18T03:45:33;72.50;;;49.50;;
41653;SDS011;30790;52.030;7.110;2022-08-18T03:48:00;72.72;;;49.97;;
41653;SDS011;30790;52.030;7.110;2022-08-18T03:50:26;78.32;;;49.35;;
41653;SDS011;30790;52.030;7.110;2022-08-18T03:52:53;79.13;;;50.67;;
41653;SDS011;30790;52.030;7.110;2022-08-18T03:55:19;81.43;;;54.72;;
41653;SDS011;30790;52.030;7.110;2022-08-18T03:57:44;79.75;;;53.05;;
41653;SDS011;30790;52.030;7.110;2022-08-18T04:00:11;79.75;;;52.53;;
41653;SDS011;30790;52.030;7.110;2022-08-18T04:02:37;77.35;;;51.15;;
41653;SDS011;30790;52.030;7.110;2022-08-18T04:05:04;69.60;;;48.22;;
41653;SDS011;30790;52.030;7.110;2022-08-18T04:07:30;65.55;;;45.40;;
41653;SDS011;30790;52.030;7.110;2022-08-18T04:09:55;57.80;;;40.28;;
41653;SDS011;30790;52.030;7.110;2022-08-18T04:12:21;54.97;;;38.47;;
41653;SDS011;30790;52.030;7.110;2022-08-18T04:14:47;56.67;;;39.47;;
41653;SDS011;30790;52.030;7.110;2022-08-18T04:17:14;59.20;;;39.33;;
41653;SDS011;30790;52.030;7.110;2022-08-18T04:19:40;58.95;;;39.15;;
41653;SDS011;30790;52.030;7.110;2022-08-18T04:22:06;52.40;;;35.17;;
41653;SDS011;30790;52.030;7.110;2022-08-18T04:24:32;49.28;;;33.60;;
41653;SDS011;30790;52.030;7.110;2022-08-18T04:27:01;47.13;;;33.60;;
41653;SDS011;30790;52.030;7.110;2022-08-18T04:29:28;52.35;;;32.83;;
41653;SDS011;30790;52.030;7.110;2022-08-18T04:31:54;48.22;;;33.03;;
41653;SDS011;30790;52.030;7.110;2022-08-18T04:34:20;46.83;;;33.38;;
41653;SDS011;30790;52.030;7.110;2022-08-18T04:36:47;49.80;;;30.63;;
41653;SDS011;30790;52.030;7.110;2022-08-18T04:39:13;49.10;;;32.67;;
41653;SDS011;30790;52.030;7.110;2022-08-18T04:41:40;47.35;;;32.38;;
41653;SDS011;30790;52.030;7.110;2022-08-18T04:44:07;49.80;;;32.50;;
41653;SDS011;30790;52.030;7.110;2022-08-18T04:46:39;44.75;;;31.42;;
41653;SDS011;30790;52.030;7.110;2022-08-18T04:49:06;48.28;;;31.95;;
41653;SDS011;30790;52.030;7.110;2022-08-18T04:51:33;47.58;;;32.90;;
41653;SDS011;30790;52.030;7.110;2022-08-18T04:53:59;47.08;;;31.80;;
41653;SDS011;30790;52.030;7.110;2022-08-18T04:56:42;43.47;;;31.80;;
41653;SDS011;30790;52.030;7.110;2022-08-18T04:59:09;62.58;;;38.65;;
41653;SDS011;30790;52.030;7.110;2022-08-18T05:01:41;58.72;;;38.55;;
41653;SDS011;30790;52.030;7.110;2022-08-18T05:04:09;74.68;;;43.80;;
41653;SDS011;30790;52.030;7.110;2022-08-18T05:06:37;72.53;;;43.00;;
41653;SDS011;30790;52.030;7.110;2022-08-18T05:09:04;65.95;;;44.25;;
41653;SDS011;30790;52.030;7.110;2022-08-18T05:11:32;67.70;;;39.97;;
41653;SDS011;30790;52.030;7.110;2022-08-18T05:13:59;55.75;;;36.88;;
41653;SDS011;30790;52.030;7.110;2022-08-18T05:16:26;71.00;;;41.22;;
41653;SDS011;30790;52.030;7.110;2022-08-18T05:18:53;60.95;;;41.38;;
41653;SDS011;30790;52.030;7.110;2022-08-18T05:21:19;77.13;;;44.53;;
41653;SDS011;30790;52.030;7.110;2022-08-18T05:23:47;63.10;;;40.28;;
41653;SDS011;30790;52.030;7.110;2022-08-18T05:26:14;57.97;;;39.78;;
41653;SDS011;30790;52.030;7.110;2022-08-18T05:28:42;56.33;;;37.05;;
41653;SDS011;30790;52.030;7.110;2022-08-18T05:31:09;53.25;;;35.05;;
41653;SDS011;30790;52.030;7.110;2022-08-18T05:33:40;41.78;;;30.90;;
41653;SDS011;30790;52.030;7.110;2022-08-18T05:39:05;42.92;;;29.85;;
41653;SDS011;30790;52.030;7.110;2022-08-18T05:41:34;43.30;;;29.63;;
41653;SDS011;30790;52.030;7.110;2022-08-18T05:44:02;47.08;;;30.52;;
41653;SDS011;30790;52.030;7.110;2022-08-18T05:49:10;47.92;;;31.90;;
41653;SDS011;30790;52.030;7.110;2022-08-18T05:51:38;45.80;;;27.67;;
41653;SDS011;30790;52.030;7.110;2022-08-18T05:54:07;37.60;;;27.20;;
41653;SDS011;30790;52.030;7.110;2022-08-18T05:56:56;46.95;;;28.80;;
41653;SDS011;30790;52.030;7.110;2022-08-18T05:59:26;48.25;;;26.98;;
41653;SDS011;30790;52.030;7.110;2022-08-18T06:02:01;43.45;;;27.88;;
41653;SDS011;30790;52.030;7.110;2022-08-18T06:04:42;44.10;;;27.20;;
41653;SDS011;30790;52.030;7.110;2022-08-18T06:07:16;39.90;;;27.27;;
41653;SDS011;30790;52.030;7.110;2022-08-18T06:09:50;36.95;;;26.73;;
41653;SDS011;30790;52.030;7.110;2022-08-18T06:15:10;41.45;;;27.80;;
41653;SDS011;30790;52.030;7.110;2022-08-18T06:20:24;41.03;;;25.83;;
41653;SDS011;30790;52.030;7.110;2022-08-18T06:23:28;42.13;;;27.63;;
41653;SDS011;30790;52.030;7.110;2022-08-18T06:28:41;40.53;;;26.90;;
41653;SDS011;30790;52.030;7.110;2022-08-18T06:31:18;42.30;;;26.70;;
41653;SDS011;30790;52.030;7.110;2022-08-18T06:33:56;41.67;;;26.00;;
41653;SDS011;30790;52.030;7.110;2022-08-18T06:41:48;34.67;;;23.73;;
41653;SDS011;30790;52.030;7.110;2022-08-18T06:44:25;32.83;;;22.52;;
41653;SDS011;30790;52.030;7.110;2022-08-18T06:46:58;29.65;;;21.65;;
41653;SDS011;30790;52.030;7.110;2022-08-18T06:52:19;30.73;;;21.15;;
41653;SDS011;30790;52.030;7.110;2022-08-18T06:55:00;30.23;;;20.77;;
41653;SDS011;30790;52.030;7.110;2022-08-18T07:00:20;25.92;;;18.38;;
41653;SDS011;30790;52.030;7.110;2022-08-18T07:02:55;29.35;;;16.92;;
41653;SDS011;30790;52.030;7.110;2022-08-18T07:05:32;22.67;;;16.42;;
41653;SDS011;30790;52.030;7.110;2022-08-18T07:08:09;26.63;;;17.48;;
41653;SDS011;30790;52.030;7.110;2022-08-18T07:10:41;26.85;;;17.67;;
41653;SDS011;30790;52.030;7.110;2022-08-18T07:13:12;25.35;;;16.58;;
41653;SDS011;30790;52.030;7.110;2022-08-18T07:15:40;26.65;;;16.42;;
41653;SDS011;30790;52.030;7.110;2022-08-18T07:18:07;24.92;;;17.65;;
41653;SDS011;30790;52.030;7.110;2022-08-18T07:20:41;28.08;;;16.67;;
41653;SDS011;30790;52.030;7.110;2022-08-18T07:23:29;24.95;;;17.02;;
41653;SDS011;30790;52.030;7.110;2022-08-18T07:28:33;26.75;;;16.88;;
41653;SDS011;30790;52.030;7.110;2022-08-18T07:34:38;23.95;;;15.48;;
41653;SDS011;30790;52.030;7.110;2022-08-18T07:37:03;26.33;;;14.35;;
41653;SDS011;30790;52.030;7.110;2022-08-18T07:39:44;25.55;;;13.90;;
41653;SDS011;30790;52.030;7.110;2022-08-18T07:42:36;26.48;;;13.45;;
41653;SDS011;30790;52.030;7.110;2022-08-18T07:48:18;18.98;;;11.38;;
41653;SDS011;30790;52.030;7.110;2022-08-18T07:50:55;16.67;;;10.55;;
41653;SDS011;30790;52.030;7.110;2022-08-18T07:56:05;21.13;;;12.52;;
41653;SDS011;30790;52.030;7.110;2022-08-18T07:58:55;20.63;;;12.85;;
41653;SDS011;30790;52.030;7.110;2022-08-18T08:01:35;19.55;;;14.40;;
41653;SDS011;30790;52.030;7.110;2022-08-18T08:04:12;21.05;;;15.20;;
41653;SDS011;30790;52.030;7.110;2022-08-18T08:07:02;24.65;;;14.20;;
41653;SDS011;30790;52.030;7.110;2022-08-18T08:12:52;23.50;;;13.77;;
41653;SDS011;30790;52.030;7.110;2022-08-18T08:18:11;20.42;;;11.75;;
41653;SDS011;30790;52.030;7.110;2022-08-18T08:20:54;20.30;;;13.18;;
41653;SDS011;30790;52.030;7.110;2022-08-18T08:23:28;20.70;;;13.75;;
41653;SDS011;30790;52.030;7.110;2022-08-18T08:28:52;25.42;;;15.23;;
41653;SDS011;30790;52.030;7.110;2022-08-18T08:31:33;21.92;;;14.00;;
41653;SDS011;30790;52.030;7.110;2022-08-18T08:34:24;22.92;;;15.02;;
41653;SDS011;30790;52.030;7.110;2022-08-18T08:37:02;22.17;;;14.75;;
41653;SDS011;30790;52.030;7.110;2022-08-18T08:39:40;25.50;;;15.32;;
41653;SDS011;30790;52.030;7.110;2022-08-18T08:42:13;21.63;;;15.65;;
41653;SDS011;30790;52.030;7.110;2022-08-18T08:44:47;25.50;;;15.55;;
41653;SDS011;30790;52.030;7.110;2022-08-18T08:47:20;25.38;;;14.98;;
41653;SDS011;30790;52.030;7.110;2022-08-18T08:49:58;22.80;;;14.75;;
41653;SDS011;30790;52.030;7.110;2022-08-18T08:52:29;24.15;;;15.85;;
41653;SDS011;30790;52.030;7.110;2022-08-18T08:57:31;24.70;;;15.38;;
41653;SDS011;30790;52.030;7.110;2022-08-18T09:00:07;26.63;;;14.40;;
41653;SDS011;30790;52.030;7.110;2022-08-18T09:02:39;24.60;;;14.45;;
41653;SDS011;30790;52.030;7.110;2022-08-18T09:05:33;21.15;;;13.05;;
41653;SDS011;30790;52.030;7.110;2022-08-18T09:11:28;19.77;;;12.60;;
41653;SDS011;30790;52.030;7.110;2022-08-18T09:16:40;21.08;;;11.27;;
41653;SDS011;30790;52.030;7.110;2022-08-18T09:21:59;20.23;;;8.15;;
41653;SDS011;30790;52.030;7.110;2022-08-18T09:24:44;16.48;;;9.00;;
41653;SDS011;30790;52.030;7.110;2022-08-18T09:27:31;12.45;;;8.43;;
41653;SDS011;30790;52.030;7.110;2022-08-18T09:30:35;21.85;;;8.98;;
41653;SDS011;30790;52.030;7.110;2022-08-18T09:33:19;19.95;;;8.95;;
41653;SDS011;30790;52.030;7.110;2022-08-18T09:38:58;11.00;;;8.32;;
41653;SDS011;30790;52.030;7.110;2022-08-18T09:41:57;9.90;;;7.13;;
41653;SDS011;30790;52.030;7.110;2022-08-18T09:47:56;11.82;;;7.28;;
41653;SDS011;30790;52.030;7.110;2022-08-18T09:54:51;14.20;;;7.45;;
41653;SDS011;30790;52.030;7.110;2022-08-18T09:57:24;18.15;;;7.13;;
41653;SDS011;30790;52.030;7.110;2022-08-18T10:10:36;10.15;;;6.28;;
41653;SDS011;30790;52.030;7.110;2022-08-18T10:21:13;6.78;;;5.32;;
41653;SDS011;30790;52.030;7.110;2022-08-18T10:29:05;9.55;;;6.13;;
41653;SDS011;30790;52.030;7.110;2022-08-18T10:34:38;12.93;;;5.45;;
41653;SDS011;30790;52.030;7.110;2022-08-18T10:37:12;6.85;;;5.30;;
41653;SDS011;30790;52.030;7.110;2022-08-18T10:44:42;15.55;;;10.48;;
41653;SDS011;30790;52.030;7.110;2022-08-18T10:47:18;8.75;;;6.78;;
41653;SDS011;30790;52.030;7.110;2022-08-18T10:49:50;12.02;;;7.00;;
41653;SDS011;30790;52.030;7.110;2022-08-18T10:52:35;13.00;;;7.18;;
41653;SDS011;30790;52.030;7.110;2022-08-18T10:55:35;10.73;;;7.65;;
41653;SDS011;30790;52.030;7.110;2022-08-18T11:06:22;20.25;;;11.85;;
41653;SDS011;30790;52.030;7.110;2022-08-18T11:08:50;24.48;;;14.43;;
41653;SDS011;30790;52.030;7.110;2022-08-18T11:11:20;24.95;;;17.17;;
41653;SDS011;30790;52.030;7.110;2022-08-18T11:13:57;32.50;;;17.15;;
41653;SDS011;30790;52.030;7.110;2022-08-18T11:19:05;34.55;;;15.85;;
41653;SDS011;30790;52.030;7.110;2022-08-18T11:24:16;30.10;;;17.42;;
41653;SDS011;30790;52.030;7.110;2022-08-18T11:34:53;30.58;;;16.92;;
41653;SDS011;30790;52.030;7.110;2022-08-18T11:42:54;27.23;;;15.25;;
41653;SDS011;30790;52.030;7.110;2022-08-18T11:45:24;25.55;;;12.95;;
41653;SDS011;30790;52.030;7.110;2022-08-18T11:48:17;28.48;;;13.98;;
41653;SDS011;30790;52.030;7.110;2022-08-18T11:56:05;19.10;;;10.27;;
41653;SDS011;30790;52.030;7.110;2022-08-18T12:01:10;25.65;;;11.68;;
41653;SDS011;30790;52.030;7.110;2022-08-18T12:03:54;19.48;;;11.43;;
41653;SDS011;30790;52.030;7.110;2022-08-18T12:06:24;20.10;;;11.30;;
41653;SDS011;30790;52.030;7.110;2022-08-18T12:08:56;22.40;;;10.85;;
41653;SDS011;30790;52.030;7.110;2022-08-18T12:11:26;20.52;;;10.50;;
41653;SDS011;30790;52.030;7.110;2022-08-18T12:14:03;17.02;;;10.30;;
41653;SDS011;30790;52.030;7.110;2022-08-18T12:16:35;17.73;;;10.13;;
41653;SDS011;30790;52.030;7.110;2022-08-18T12:19:10;18.80;;;9.20;;
41653;SDS011;30790;52.030;7.110;2022-08-18T12:21:42;19.83;;;9.95;;
41653;SDS011;30790;52.030;7.110;2022-08-18T12:24:21;21.45;;;10.00;;
41653;SDS011;30790;52.030;7.110;2022-08-18T12:26:53;12.50;;;9.75;;
41653;SDS011;30790;52.030;7.110;2022-08-18T12:29:19;14.40;;;9.52;;
41653;SDS011;30790;52.030;7.110;2022-08-18T12:31:45;14.80;;;10.52;;
41653;SDS011;30790;52.030;7.110;2022-08-18T12:34:18;15.75;;;9.35;;
41653;SDS011;30790;52.030;7.110;2022-08-18T12:36:47;19.45;;;9.23;;
41653;SDS011;30790;52.030;7.110;2022-08-18T12:39:15;14.82;;;9.52;;
41653;SDS011;30790;52.030;7.110;2022-08-18T12:41:40;12.10;;;8.73;;
41653;SDS011;30790;52.030;7.110;2022-08-18T12:44:05;12.38;;;8.27;;
41653;SDS011;30790;52.030;7.110;2022-08-18T12:46:31;15.75;;;9.40;;
41653;SDS011;30790;52.030;7.110;2022-08-18T12:48:56;13.35;;;8.48;;
41653;SDS011;30790;52.030;7.110;2022-08-18T12:51:21;14.50;;;8.50;;
41653;SDS011;30790;52.030;7.110;2022-08-18T12:53:47;17.95;;;9.48;;
41653;SDS011;30790;52.030;7.110;2022-08-18T12:56:26;17.08;;;7.88;;
41653;SDS011;30790;52.030;7.110;2022-08-18T12:58:57;13.02;;;7.95;;
41653;SDS011;30790;52.030;7.110;2022-08-18T13:01:25;11.15;;;8.38;;
41653;SDS011;30790;52.030;7.110;2022-08-18T13:03:51;12.77;;;8.20;;
41653;SDS011;30790;52.030;7.110;2022-08-18T13:06:19;13.68;;;7.90;;
41653;SDS011;30790;52.030;7.110;2022-08-18T13:08:46;12.25;;;8.30;;
41653;SDS011;30790;52.030;7.110;2022-08-18T13:11:11;17.35;;;8.30;;
41653;SDS011;30790;52.030;7.110;2022-08-18T13:13:37;19.10;;;8.40;;
41653;SDS011;30790;52.030;7.110;2022-08-18T13:16:03;17.95;;;7.35;;
41653;SDS011;30790;52.030;7.110;2022-08-18T13:18:34;13.23;;;8.00;;
41653;SDS011;30790;52.030;7.110;2022-08-18T13:21:01;11.07;;;7.68;;
41653;SDS011;30790;52.030;7.110;2022-08-18T13:23:28;15.30;;;7.13;;
41653;SDS011;30790;52.030;7.110;2022-08-18T13:25:54;13.15;;;8.25;;
41653;SDS011;30790;52.030;7.110;2022-08-18T13:28:22;19.45;;;9.07;;
41653;SDS011;30790;52.030;7.110;2022-08-18T13:30:47;14.48;;;7.32;;
41653;SDS011;30790;52.030;7.110;2022-08-18T13:33:14;14.23;;;7.10;;
41653;SDS011;30790;52.030;7.110;2022-08-18T13:35:40;12.02;;;7.45;;
41653;SDS011;30790;52.030;7.110;2022-08-18T13:38:06;13.07;;;7.78;;
41653;SDS011;30790;52.030;7.110;2022-08-18T13:40:31;13.68;;;8.20;;
41653;SDS011;30790;52.030;7.110;2022-08-18T13:42:57;10.77;;;7.18;;
41653;SDS011;30790;52.030;7.110;2022-08-18T13:45:22;16.52;;;8.13;;
41653;SDS011;30790;52.030;7.110;2022-08-18T13:47:49;11.20;;;7.25;;
41653;SDS011;30790;52.030;7.110;2022-08-18T13:50:15;14.60;;;7.75;;
41653;SDS011;30790;52.030;7.110;2022-08-18T13:52:41;19.55;;;8.02;;
41653;SDS011;30790;52.030;7.110;2022-08-18T13:55:09;13.20;;;7.18;;
41653;SDS011;30790;52.030;7.110;2022-08-18T13:57:37;9.40;;;6.90;;
41653;SDS011;30790;52.030;7.110;2022-08-18T14:00:04;15.95;;;7.88;;
41653;SDS011;30790;52.030;7.110;2022-08-18T14:02:35;15.52;;;7.45;;
41653;SDS011;30790;52.030;7.110;2022-08-18T14:05:00;16.27;;;7.45;;
41653;SDS011;30790;52.030;7.110;2022-08-18T14:07:26;19.50;;;7.78;;
41653;SDS011;30790;52.030;7.110;2022-08-18T14:09:51;15.48;;;7.22;;
41653;SDS011;30790;52.030;7.110;2022-08-18T14:12:20;12.80;;;6.75;;
41653;SDS011;30790;52.030;7.110;2022-08-18T14:14:47;12.25;;;6.22;;
41653;SDS011;30790;52.030;7.110;2022-08-18T14:17:14;10.30;;;6.35;;
41653;SDS011;30790;52.030;7.110;2022-08-18T14:19:39;15.55;;;6.43;;
41653;SDS011;30790;52.030;7.110;2022-08-18T14:22:23;8.85;;;6.00;;
41653;SDS011;30790;52.030;7.110;2022-08-18T14:25:07;13.18;;;6.03;;
41653;SDS011;30790;52.030;7.110;2022-08-18T14:27:51;21.40;;;7.35;;
41653;SDS011;30790;52.030;7.110;2022-08-18T14:30:17;22.48;;;7.53;;
41653;SDS011;30790;52.030;7.110;2022-08-18T14:32:43;19.55;;;7.03;;
41653;SDS011;30790;52.030;7.110;2022-08-18T14:35:10;33.00;;;7.97;;
41653;SDS011;30790;52.030;7.110;2022-08-18T14:37:37;32.47;;;7.15;;
41653;SDS011;30790;52.030;7.110;2022-08-18T14:40:04;21.40;;;6.90;;
41653;SDS011;30790;52.030;7.110;2022-08-18T14:42:31;25.15;;;7.80;;
41653;SDS011;30790;52.030;7.110;2022-08-18T14:44:57;30.00;;;6.65;;
41653;SDS011;30790;52.030;7.110;2022-08-18T14:47:22;23.30;;;6.65;;
41653;SDS011;30790;52.030;7.110;2022-08-18T14:49:51;24.10;;;6.65;;
41653;SDS011;30790;52.030;7.110;2022-08-18T14:52:16;24.33;;;6.57;;
41653;SDS011;30790;52.030;7.110;2022-08-18T14:54:41;30.80;;;7.75;;
41653;SDS011;30790;52.030;7.110;2022-08-18T14:57:07;20.17;;;6.82;;
41653;SDS011;30790;52.030;7.110;2022-08-18T14:59:36;24.77;;;6.40;;
41653;SDS011;30790;52.030;7.110;2022-08-18T15:02:02;19.95;;;6.55;;
41653;SDS011;30790;52.030;7.110;2022-08-18T15:04:28;19.10;;;6.53;;
41653;SDS011;30790;52.030;7.110;2022-08-18T15:06:53;18.90;;;6.43;;
41653;SDS011;30790;52.030;7.110;2022-08-18T15:09:19;28.17;;;6.65;;
41653;SDS011;30790;52.030;7.110;2022-08-18T15:11:44;18.23;;;6.32;;
41653;SDS011;30790;52.030;7.110;2022-08-18T15:14:10;32.42;;;6.80;;
41653;SDS011;30790;52.030;7.110;2022-08-18T15:16:35;29.77;;;7.45;;
41653;SDS011;30790;52.030;7.110;2022-08-18T15:19:01;20.55;;;6.60;;
41653;SDS011;30790;52.030;7.110;2022-08-18T15:21:27;22.17;;;6.45;;
41653;SDS011;30790;52.030;7.110;2022-08-18T15:24:12;19.55;;;6.50;;
41653;SDS011;30790;52.030;7.110;2022-08-18T15:26:56;44.05;;;8.23;;
41653;SDS011;30790;52.030;7.110;2022-08-18T15:29:22;88.65;;;11.43;;
41653;SDS011;30790;52.030;7.110;2022-08-18T15:31:48;37.20;;;8.00;;
41653;SDS011;30790;52.030;7.110;2022-08-18T15:34:14;54.20;;;8.07;;
41653;SDS011;30790;52.030;7.110;2022-08-18T15:36:40;30.65;;;7.30;;
41653;SDS011;30790;52.030;7.110;2022-08-18T15:39:06;38.53;;;7.60;;
41653;SDS011;30790;52.030;7.110;2022-08-18T15:41:33;28.45;;;7.30;;
41653;SDS011;30790;52.030;7.110;2022-08-18T15:44:01;25.80;;;6.30;;
41653;SDS011;30790;52.030;7.110;2022-08-18T15:46:30;18.23;;;7.03;;
41653;SDS011;30790;52.030;7.110;2022-08-18T15:48:56;19.85;;;6.50;;
41653;SDS011;30790;52.030;7.110;2022-08-18T15:51:22;24.92;;;6.18;;
41653;SDS011;30790;52.030;7.110;2022-08-18T15:53:47;31.08;;;6.97;;
41653;SDS011;30790;52.030;7.110;2022-08-18T15:56:19;22.95;;;7.20;;
41653;SDS011;30790;52.030;7.110;2022-08-18T15:58:47;18.05;;;5.95;;
41653;SDS011;30790;52.030;7.110;2022-08-18T16:01:13;19.23;;;6.75;;
41653;SDS011;30790;52.030;7.110;2022-08-18T16:03:39;22.05;;;6.93;;
41653;SDS011;30790;52.030;7.110;2022-08-18T16:06:05;17.35;;;5.65;;
41653;SDS011;30790;52.030;7.110;2022-08-18T16:08:31;20.05;;;5.93;;
41653;SDS011;30790;52.030;7.110;2022-08-18T16:11:04;11.27;;;5.13;;
41653;SDS011;30790;52.030;7.110;2022-08-18T16:13:31;20.83;;;5.75;;
41653;SDS011;30790;52.030;7.110;2022-08-18T16:15:57;14.23;;;5.82;;
41653;SDS011;30790;52.030;7.110;2022-08-18T16:18:22;13.10;;;5.57;;
41653;SDS011;30790;52.030;7.110;2022-08-18T16:20:47;14.98;;;5.45;;
41653;SDS011;30790;52.030;7.110;2022-08-18T16:23:13;21.83;;;6.03;;
41653;SDS011;30790;52.030;7.110;2022-08-18T16:25:40;14.63;;;5.43;;
41653;SDS011;30790;52.030;7.110;2022-08-18T16:28:07;18.98;;;5.18;;
41653;SDS011;30790;52.030;7.110;2022-08-18T16:30:33;14.73;;;5.15;;
41653;SDS011;30790;52.030;7.110;2022-08-18T16:32:59;15.18;;;5.65;;
41653;SDS011;30790;52.030;7.110;2022-08-18T16:35:29;17.55;;;5.30;;
41653;SDS011;30790;52.030;7.110;2022-08-18T16:37:55;21.38;;;7.53;;
41653;SDS011;30790;52.030;7.110;2022-08-18T16:40:26;26.52;;;7.15;;
41653;SDS011;30790;52.030;7.110;2022-08-18T16:42:53;19.13;;;5.72;;
41653;SDS011;30790;52.030;7.110;2022-08-18T16:45:19;20.27;;;6.53;;
41653;SDS011;30790;52.030;7.110;2022-08-18T16:47:45;20.45;;;6.05;;
41653;SDS011;30790;52.030;7.110;2022-08-18T16:50:12;22.65;;;6.45;;
41653;SDS011;30790;52.030;7.110;2022-08-18T16:52:40;25.00;;;6.43;;
41653;SDS011;30790;52.030;7.110;2022-08-18T16:55:06;17.83;;;6.30;;
41653;SDS011;30790;52.030;7.110;2022-08-18T16:57:33;20.08;;;6.45;;